Rosefield, Illinois
Current Conditions -  °F | °C
As of 10:54 PM on Friday 24 Oct 2014 (Local Time) from KPIA Reporting Station
Overcast Overcast  
Wind Chill: 62°   Ceiling: 3300
Heat Index: 62°   Visibility: 10mi
Dew Point: 51°   Wind: 8mph
Humidity: 67%   Direction: 200°SSW
Pressure: 29.96"   Gusts: NA
Location:  40.7615°N, 89.9372°W
Report Text: KPIA 250354Z 20007KT 10SM OVC033 17/11 A2996 RMK AO2 SLP143 T01670106
Loading
Personal Weather Stations






























Interactive Weather Map
Tropical Storm Tracking
New forecast layout! Learn more

10-Day Weather Forecast

Advertisements
Track Severe Weather on mobile